Time;durP1;ratioP1;P1;durP2;ratioP2;P2;SDS_P1;SDS_P2;PMS_P1;PMS_P2;Temp;Humidity;BMP_temperature;BMP_pressure;BME280_temperature;BME280_humidity;BME280_pressure;Samples;Min_cycle;Max_cycle;Signal;HPM_P1;HPM_P2
2022/03/21 00:00:42;;;;;;;25.15;14.48;;;;;;;4.47;50.09;102140.91;4995092;28;20030;-79
2022/03/21 00:03:09;;;;;;;31.45;15.00;;;;;;;4.44;50.12;102154.31;5006068;28;20038;-79
2022/03/21 00:05:36;;;;;;;26.67;14.13;;;;;;;4.42;50.32;102146.50;5014601;28;20029;-79
2022/03/21 00:08:02;;;;;;;27.25;16.25;;;;;;;4.35;50.23;102142.47;5024827;28;20569;-79
2022/03/21 00:10:28;;;;;;;;;;;;;;;4.37;50.38;102163.53;4998322;28;20983;-77
2022/03/21 00:12:54;;;;;;;29.60;13.80;;;;;;;4.33;50.43;102152.31;4998313;28;20011;-78
2022/03/21 00:15:20;;;;;;;28.58;14.70;;;;;;;4.35;50.48;102163.63;5013644;28;20151;-79
2022/03/21 00:17:45;;;;;;;33.75;15.75;;;;;;;4.36;50.19;102156.56;4999066;28;20112;-79
2022/03/21 00:20:12;;;;;;;26.00;13.67;;;;;;;4.40;49.94;102158.94;5031073;28;20025;-76
2022/03/21 00:22:38;;;;;;;25.63;14.70;;;;;;;4.36;50.11;102143.34;4995310;28;20037;-76
2022/03/21 00:25:08;;;;;;;27.23;14.88;;;;;;;4.34;50.15;102155.78;4995584;28;20066;-79
2022/03/21 00:27:38;;;;;;;26.90;14.05;;;;;;;4.32;50.47;102168.25;4999640;28;20041;-79
2022/03/21 00:30:09;;;;;;;27.00;13.80;;;;;;;4.33;50.27;102154.06;5007891;28;20022;-79
2022/03/21 00:32:37;;;;;;;29.00;14.60;;;;;;;4.32;50.37;102153.22;5015402;28;20058;-79
2022/03/21 00:35:04;;;;;;;24.92;13.57;;;;;;;4.19;50.53;102146.94;4998931;28;20039;-80
2022/03/21 00:37:31;;;;;;;24.55;14.10;;;;;;;4.25;50.76;102180.97;4998941;28;20548;-79
2022/03/21 00:39:57;;;;;;;30.17;14.82;;;;;;;4.15;51.01;102171.84;5031783;28;20021;-79
2022/03/21 00:42:22;;;;;;;27.60;14.00;;;;;;;4.25;50.55;102188.03;4999439;28;20041;-79
2022/03/21 00:44:48;;;;;;;26.15;14.30;;;;;;;4.22;50.60;102179.34;4997590;28;20034;-79
2022/03/21 00:47:16;;;;;;;24.75;13.93;;;;;;;4.09;50.91;102157.16;4998475;28;20077;-78
2022/03/21 00:49:41;;;;;;;28.45;13.75;;;;;;;4.06;51.21;102185.56;5013864;28;20045;-79
2022/03/21 00:52:07;;;;;;;33.80;14.13;;;;;;;4.02;51.22;102196.28;4997889;28;20025;-79
2022/03/21 00:54:32;;;;;;;30.33;14.00;;;;;;;4.05;51.23;102189.13;4997874;28;20029;-78
2022/03/21 00:56:58;;;;;;;28.33;14.90;;;;;;;4.07;51.13;102196.03;5014651;28;20048;-78
2022/03/21 00:59:23;;;;;;;27.27;13.13;;;;;;;4.06;51.22;102207.56;4997226;28;20047;-78
2022/03/21 01:01:48;;;;;;;25.60;14.57;;;;;;;3.99;51.39;102204.41;5014440;28;20038;-79
2022/03/21 01:04:14;;;;;;;25.13;13.63;;;;;;;4.05;51.43;102213.81;4997701;28;20079;-79
2022/03/21 01:06:39;;;;;;;24.80;14.30;;;;;;;3.95;51.79;102233.72;5032109;28;20037;-79
2022/03/21 01:09:05;;;;;;;24.88;13.95;;;;;;;3.98;51.71;102237.06;5031603;28;20021;-77
2022/03/21 01:11:30;;;;;;;29.93;14.53;;;;;;;3.91;51.90;102225.13;5013645;28;20398;-78
2022/03/21 01:13:56;;;;;;;29.47;14.30;;;;;;;3.90;52.31;102244.53;5012878;28;20034;-79
2022/03/21 01:16:21;;;;;;;22.03;13.63;;;;;;;3.95;52.05;102239.00;5013954;28;20049;-79
2022/03/21 01:18:46;;;;;;;25.33;13.67;;;;;;;3.91;52.21;102253.31;5014103;28;20033;-78
2022/03/21 01:21:12;;;;;;;28.60;14.47;;;;;;;3.90;52.41;102259.53;4997841;28;20087;-79
2022/03/21 01:23:38;;;;;;;25.77;13.15;;;;;;;3.79;52.47;102260.97;4994969;28;20038;-79
2022/03/21 01:26:03;;;;;;;27.15;14.90;;;;;;;3.79;52.53;102258.34;5014221;28;20029;-80
2022/03/21 01:28:29;;;;;;;27.50;13.32;;;;;;;3.76;52.36;102260.28;5014328;28;20045;-78
2022/03/21 01:30:54;;;;;;;26.93;13.30;;;;;;;3.75;52.33;102259.44;5014341;28;20034;-79
2022/03/21 01:33:20;;;;;;;30.88;15.43;;;;;;;3.73;52.63;102268.38;5014297;28;20032;-79
2022/03/21 01:35:45;;;;;;;29.70;15.30;;;;;;;3.74;52.57;102270.91;5014011;28;20104;-78
2022/03/21 01:38:10;;;;;;;29.20;13.57;;;;;;;3.71;52.69;102271.09;5013814;28;20079;-78
2022/03/21 01:40:36;;;;;;;28.70;14.20;;;;;;;3.69;52.65;102267.66;4996897;28;20636;-79
2022/03/21 01:43:01;;;;;;;29.83;14.32;;;;;;;3.72;52.50;102264.00;5012816;28;20406;-79
2022/03/21 01:45:28;;;;;;;36.75;14.48;;;;;;;3.58;52.80;102257.69;4997034;28;20105;-76
2022/03/21 01:47:54;;;;;;;24.95;13.90;;;;;;;3.65;52.63;102258.19;5012306;28;20033;-79
2022/03/21 01:50:20;;;;;;;24.98;13.10;;;;;;;3.57;52.80;102260.41;4993623;28;20375;-76
2022/03/21 01:52:46;;;;;;;26.67;13.65;;;;;;;3.64;52.72;102277.63;4994027;28;20031;-76
2022/03/21 01:58:00;;;;;;;26.02;13.60;;;;;;;3.77;51.79;102240.88;5029132;28;20033;-75
2022/03/21 02:00:26;;;;;;;25.45;14.00;;;;;;;3.78;51.50;102200.28;5010148;28;20068;-77
2022/03/21 02:02:51;;;;;;;24.17;11.85;;;;;;;3.89;51.31;102202.38;5010178;28;20033;-75
2022/03/21 02:05:17;;;;;;;28.27;11.85;;;;;;;3.87;51.14;102188.38;5011159;28;20031;-76
2022/03/21 02:07:44;;;;;;;23.92;13.10;;;;;;;3.80;51.31;102188.69;5027601;28;20041;-77
2022/03/21 02:10:10;;;;;;;23.88;12.70;;;;;;;3.75;51.50;102198.66;5009952;28;20060;-77
2022/03/21 02:12:35;;;;;;;23.20;13.50;;;;;;;3.68;51.54;102197.28;5027749;28;20053;-76
2022/03/21 02:15:02;;;;;;;22.92;14.07;;;;;;;3.66;51.97;102201.81;5009850;28;20025;-76
2022/03/21 02:17:29;;;;;;;27.15;13.68;;;;;;;3.58;52.13;102220.72;5027796;28;20033;-77
2022/03/21 02:19:57;;;;;;;24.75;12.90;;;;;;;3.48;52.66;102239.75;5027394;28;20029;-76
2022/03/21 02:22:56;;;;;;;28.98;14.20;;;;;;;3.47;52.67;102253.91;5027740;28;20034;-77
2022/03/21 02:25:33;;;;;;;26.23;13.52;;;;;;;3.41;52.68;102260.31;5022225;28;20038;-77
2022/03/21 02:28:01;;;;;;;26.33;14.02;;;;;;;3.36;53.44;102284.31;4993225;28;20038;-76
2022/03/21 02:30:28;;;;;;;25.67;13.55;;;;;;;3.34;53.40;102296.75;5009349;28;20029;-77
2022/03/21 02:32:55;;;;;;;24.50;13.70;;;;;;;3.28;53.27;102289.16;4993325;28;20441;-77
2022/03/21 02:35:21;;;;;;;29.33;14.35;;;;;;;3.30;53.41;102302.25;4989836;28;20017;-76
2022/03/21 02:37:48;;;;;;;24.75;12.80;;;;;;;3.21;53.56;102286.88;4993210;28;20041;-77
2022/03/21 02:40:16;;;;;;;25.50;13.23;;;;;;;3.19;54.06;102323.94;5025952;28;20021;-78
2022/03/21 02:42:43;;;;;;;26.70;14.73;;;;;;;3.15;54.35;102354.88;5009255;28;20056;-76
2022/03/21 02:45:09;;;;;;;27.70;13.82;;;;;;;3.07;54.67;102362.34;5009388;28;20098;-77
2022/03/21 02:47:34;;;;;;;24.30;13.90;;;;;;;2.96;54.98;102370.75;5009665;28;20041;-77
2022/03/21 02:50:01;;;;;;;25.13;13.87;;;;;;;2.96;55.51;102397.13;5008871;28;20018;-77
2022/03/21 02:52:28;;;;;;;24.60;13.57;;;;;;;2.89;55.49;102406.28;4990941;28;20060;-77
2022/03/21 02:54:54;;;;;;;24.27;14.02;;;;;;;2.99;55.12;102405.84;5026740;28;20107;-77
2022/03/21 02:57:19;;;;;;;25.83;13.67;;;;;;;3.05;54.84;102397.66;5009845;28;20080;-77
2022/03/21 02:59:45;;;;;;;26.17;13.20;;;;;;;3.13;54.65;102377.84;5008680;28;20036;-76
2022/03/21 03:02:10;;;;;;;28.97;12.87;;;;;;;3.06;54.16;102328.09;5027131;28;20048;-77
2022/03/21 03:04:35;;;;;;;22.47;11.83;;;;;;;3.16;53.84;102300.31;4992948;28;20029;-77
2022/03/21 03:07:01;;;;;;;24.13;12.53;;;;;;;3.16;53.32;102288.00;4985113;28;20403;-77
2022/03/21 03:09:26;;;;;;;24.10;12.33;;;;;;;3.26;53.17;102272.53;5008984;28;20034;-76
2022/03/21 03:11:52;;;;;;;26.30;13.23;;;;;;;3.29;52.34;102234.56;5008164;28;20044;-77
2022/03/21 03:14:17;;;;;;;22.60;11.93;;;;;;;3.37;52.15;102209.50;5009409;28;20442;-77
2022/03/21 03:16:43;;;;;;;24.20;12.23;;;;;;;3.35;51.86;102177.03;4990699;28;20038;-77
2022/03/21 03:19:08;;;;;;;21.67;12.33;;;;;;;3.42;51.69;102181.97;5009776;28;20033;-76
2022/03/21 03:21:40;;;;;;;29.00;13.60;;;;;;;3.33;51.49;102154.28;4993109;28;20288;-77
2022/03/21 03:24:08;;;;;;;22.73;12.65;;;;;;;3.28;51.59;102169.53;4981757;28;20084;-77
2022/03/21 03:26:34;;;;;;;25.48;13.57;;;;;;;3.29;51.97;102173.84;4989412;28;20183;-77
2022/03/21 03:28:59;;;;;;;24.30;12.10;;;;;;;3.25;51.65;102157.31;4992322;28;20113;-77
2022/03/21 03:31:25;;;;;;;23.90;11.70;;;;;;;3.23;51.63;102161.84;5009137;28;20041;-77
2022/03/21 03:33:51;;;;;;;22.75;12.02;;;;;;;3.18;51.87;102161.19;4992994;28;20648;-77
2022/03/21 03:36:16;;;;;;;21.48;12.05;;;;;;;3.14;52.01;102183.44;5026789;28;20386;-77
2022/03/21 03:38:46;;;;;;;23.73;12.23;;;;;;;3.16;52.46;102207.94;5028905;28;20036;-77
2022/03/21 03:41:12;;;;;;;22.45;11.80;;;;;;;3.18;52.79;102219.28;5030962;28;20052;-77
2022/03/21 03:43:38;;;;;;;24.65;12.65;;;;;;;3.12;52.61;102204.63;5012957;28;20060;-77
2022/03/21 03:46:04;;;;;;;26.50;12.63;;;;;;;3.08;52.61;102199.56;5012446;28;20033;-78
2022/03/21 03:48:30;;;;;;;20.85;10.85;;;;;;;3.10;52.67;102214.38;5012651;28;20049;-77
2022/03/21 03:50:55;;;;;;;26.25;11.63;;;;;;;3.10;52.42;102208.25;5012330;28;20091;-77
2022/03/21 03:53:21;;;;;;;22.10;12.25;;;;;;;3.10;52.44;102189.78;4996217;28;20021;-77
2022/03/21 03:55:46;;;;;;;26.27;12.73;;;;;;;3.06;52.26;102178.53;5012446;28;20618;-77
2022/03/21 03:58:12;;;;;;;23.23;11.40;;;;;;;3.01;52.47;102177.06;5012234;28;20049;-77
2022/03/21 04:00:37;;;;;;;27.25;11.75;;;;;;;2.93;52.66;102180.94;4995878;28;20045;-77
2022/03/21 04:05:49;;;;;;;32.38;11.63;;;;;;;2.92;53.22;102232.00;5032288;28;20134;-77
2022/03/21 04:08:14;;;;;;;25.67;11.55;;;;;;;2.88;53.32;102240.13;4995747;28;20483;-77
2022/03/21 04:10:40;;;;;;;22.45;11.52;;;;;;;2.75;53.83;102261.00;5012184;28;20107;-79
2022/03/21 04:13:05;;;;;;;23.63;11.13;;;;;;;2.72;54.22;102291.03;5030393;28;20147;-77
2022/03/21 04:15:30;;;;;;;25.67;12.43;;;;;;;2.70;54.44;102307.84;4995430;28;20057;-77
2022/03/21 04:18:04;;;;;;;24.80;12.80;;;;;;;2.69;54.48;102311.41;5012013;28;20083;-77
2022/03/21 04:20:31;;;;;;;18.70;11.85;;;;;;;2.61;54.83;102324.94;4995429;28;20038;-77
2022/03/21 04:22:57;;;;;;;24.80;11.55;;;;;;;2.58;54.65;102305.81;4995684;28;20474;-77
2022/03/21 04:25:22;;;;;;;;;;;;;;;2.57;54.75;102320.75;5012046;28;20064;-76
2022/03/21 04:27:48;;;;;;;25.83;12.50;;;;;;;2.58;54.91;102322.47;5011841;28;20362;-76
2022/03/21 04:30:13;;;;;;;25.15;12.15;;;;;;;2.48;54.77;102316.78;4996591;28;20033;-76
2022/03/21 04:32:39;;;;;;;23.88;11.70;;;;;;;2.41;54.97;102325.03;5011768;28;20027;-77
2022/03/21 04:35:06;;;;;;;26.13;12.25;;;;;;;2.44;54.91;102319.63;5003545;28;20029;-76
2022/03/21 04:37:31;;;;;;;;;;;;;;;2.42;55.36;102348.69;5011989;28;20037;-77
2022/03/21 04:39:56;;;;;;;25.42;12.52;;;;;;;2.33;55.37;102344.69;5011353;28;19909;-77
2022/03/21 04:42:22;;;;;;;22.93;11.83;;;;;;;2.35;55.34;102330.59;5011842;28;20041;-77
2022/03/21 04:44:50;;;;;;;23.90;11.20;;;;;;;2.35;55.81;102363.06;5011264;28;20144;-77
2022/03/21 04:47:16;;;;;;;23.88;12.30;;;;;;;2.25;55.93;102373.19;4995187;28;20048;-76
2022/03/21 04:49:41;;;;;;;24.55;12.57;;;;;;;2.25;56.24;102386.38;4994396;28;20037;-76
2022/03/21 04:52:06;;;;;;;24.00;12.53;;;;;;;2.28;56.15;102393.28;5029184;28;20017;-77
2022/03/21 04:54:32;;;;;;;21.67;11.88;;;;;;;2.12;56.48;102382.53;4996936;28;20676;-79
2022/03/21 04:56:58;;;;;;;23.25;13.35;;;;;;;2.14;56.74;102406.22;4994834;28;20033;-76
2022/03/21 04:59:23;;;;;;;18.95;11.23;;;;;;;2.11;56.78;102405.41;5010768;28;20083;-76
2022/03/21 05:01:48;;;;;;;20.57;11.97;;;;;;;2.18;56.45;102403.38;5010837;28;20025;-76
2022/03/21 05:04:14;;;;;;;24.52;12.85;;;;;;;2.02;56.58;102386.53;5010949;28;20033;-76
2022/03/21 05:06:39;;;;;;;26.63;12.47;;;;;;;2.16;56.00;102378.00;4994471;28;20032;-76
2022/03/21 05:09:06;;;;;;;24.38;11.93;;;;;;;2.14;56.15;102385.13;5010182;28;20057;-76
2022/03/21 05:11:31;;;;;;;19.27;11.38;;;;;;;2.09;56.16;102386.19;4994228;28;20033;-77
2022/03/21 05:13:57;;;;;;;20.73;11.02;;;;;;;2.07;55.99;102366.94;5010400;28;20036;-76
2022/03/21 05:16:23;;;;;;;25.63;11.48;;;;;;;2.13;55.88;102371.09;5028261;28;20033;-76
2022/03/21 05:18:49;;;;;;;21.60;10.93;;;;;;;2.08;55.94;102373.06;4994239;28;20371;-76
2022/03/21 05:21:16;;;;;;;21.23;11.30;;;;;;;2.03;56.11;102373.25;5010636;28;20025;-76
2022/03/21 05:31:53;;;;;;;24.58;11.38;;;;;;;1.97;56.98;102431.50;5008930;28;20061;-76
2022/03/21 05:37:03;;;;;;;20.63;11.13;;;;;;;1.89;57.92;102491.53;5009383;28;20478;-76
2022/03/21 05:39:29;;;;;;;26.23;13.05;;;;;;;1.88;57.64;102474.03;5011879;28;20061;-78
2022/03/21 05:41:54;;;;;;;20.00;11.80;;;;;;;1.89;57.82;102487.13;4978382;28;20175;-78
2022/03/21 05:44:20;;;;;;;21.33;12.23;;;;;;;1.84;57.61;102473.28;5011666;28;20030;-77
2022/03/21 05:46:46;;;;;;;18.83;10.60;;;;;;;1.84;57.54;102461.91;5008002;28;20044;-76
2022/03/21 05:49:12;;;;;;;;;;;;;;;1.96;57.18;102461.38;4994027;28;20391;-79
2022/03/21 05:51:40;;;;;;;22.48;11.10;;;;;;;1.95;57.11;102449.16;5010511;28;19913;-79
2022/03/21 05:54:13;;;;;;;23.92;11.50;;;;;;;1.93;56.77;102429.91;5003841;28;20017;-79
2022/03/21 05:56:41;;;;;;;26.33;12.40;;;;;;;2.03;56.76;102443.53;5008069;28;20405;-76
2022/03/21 06:01:55;;;;;;;22.08;11.60;;;;;;;2.04;56.42;102432.94;4989712;28;20525;-76
2022/03/21 06:04:23;;;;;;;21.83;10.83;;;;;;;2.08;56.06;102418.72;5008415;28;20071;-77
2022/03/21 06:06:48;;;;;;;25.00;11.80;;;;;;;2.08;56.27;102423.13;4992626;28;20505;-77
2022/03/21 06:09:15;;;;;;;23.83;12.50;;;;;;;2.14;56.09;102425.50;4992645;28;20010;-77
2022/03/21 06:11:40;;;;;;;22.20;12.23;;;;;;;2.20;55.61;102403.28;5008348;28;20037;-77
2022/03/21 06:14:08;;;;;;;22.60;12.63;;;;;;;2.21;55.78;102400.59;5008900;28;20393;-76
2022/03/21 06:16:34;;;;;;;21.48;12.38;;;;;;;2.25;55.03;102382.88;5009175;28;20041;-77
2022/03/21 06:19:00;;;;;;;22.40;12.23;;;;;;;2.22;55.19;102362.75;5012053;28;20017;-79
2022/03/21 06:21:29;;;;;;;24.88;12.07;;;;;;;2.47;54.38;102367.78;5013814;28;20041;-78
2022/03/21 06:23:54;;;;;;;21.38;12.00;;;;;;;2.78;53.99;102392.72;4994567;28;20053;-77
2022/03/21 06:26:20;;;;;;;22.85;11.95;;;;;;;2.82;53.54;102352.09;5009813;28;20025;-76
2022/03/21 06:28:45;;;;;;;19.93;11.27;;;;;;;3.03;53.10;102373.09;5028735;28;20447;-78
2022/03/21 06:31:11;;;;;;;39.42;13.98;;;;;;;3.00;52.96;102320.47;5030542;28;20394;-79
2022/03/21 06:33:36;;;;;;;26.83;11.00;;;;;;;3.03;53.05;102358.13;5008885;28;20040;-77
2022/03/21 06:36:02;;;;;;;27.43;12.47;;;;;;;3.08;53.16;102371.09;4991579;28;20037;-77
2022/03/21 06:38:29;;;;;;;26.05;12.90;;;;;;;2.78;53.25;102304.84;5006173;28;20080;-76
2022/03/21 06:40:55;;;;;;;25.23;11.63;;;;;;;2.71;53.54;102315.66;4987665;28;20041;-77
2022/03/21 06:43:22;;;;;;;22.42;12.15;;;;;;;2.94;53.29;102372.59;4991206;28;20386;-77
2022/03/21 06:45:50;;;;;;;23.00;11.45;;;;;;;3.13;52.94;102374.38;4990349;28;20162;-76
2022/03/21 06:48:16;;;;;;;26.45;12.52;;;;;;;3.08;52.50;102337.63;5000941;28;20029;-77
2022/03/21 06:50:43;;;;;;;25.13;11.55;;;;;;;3.73;51.97;102398.66;5024340;28;20512;-76
2022/03/21 06:53:08;;;;;;;21.30;11.35;;;;;;;3.24;51.70;102248.00;4990984;28;20030;-76
2022/03/21 06:55:33;;;;;;;24.57;12.17;;;;;;;3.31;52.25;102299.56;5007048;28;20136;-77
2022/03/21 06:58:01;;;;;;;27.73;12.10;;;;;;;3.08;52.50;102276.09;4991157;28;20025;-76
2022/03/21 07:00:26;;;;;;;21.88;11.88;;;;;;;3.27;52.67;102336.75;5006949;28;20037;-77
2022/03/21 07:02:52;;;;;;;19.48;11.38;;;;;;;3.27;52.40;102319.09;5025387;28;20037;-76
2022/03/21 07:05:18;;;;;;;26.10;12.97;;;;;;;3.30;52.42;102326.91;5007011;28;20045;-76
2022/03/21 07:07:43;;;;;;;21.77;11.55;;;;;;;3.54;52.14;102355.63;5009171;28;20064;-76
2022/03/21 07:10:09;;;;;;;21.47;13.20;;;;;;;3.41;51.69;102297.28;4990010;28;20075;-76
2022/03/21 07:12:34;;;;;;;25.75;13.30;;;;;;;3.55;51.72;102329.13;5007996;28;20037;-76
2022/03/21 07:15:01;;;;;;;23.77;11.47;;;;;;;3.89;51.44;102387.31;4994575;28;20041;-76
2022/03/21 07:17:26;;;;;;;23.67;11.18;;;;;;;3.91;51.27;102345.78;4994820;28;20919;-77
2022/03/21 07:19:52;;;;;;;19.63;11.20;;;;;;;4.37;50.33;102378.59;4994181;28;20040;-76
2022/03/21 07:22:17;;;;;;;21.33;11.57;;;;;;;4.81;49.95;102406.22;5010805;28;20064;-76
2022/03/21 07:24:44;;;;;;;21.63;11.23;;;;;;;4.78;49.48;102333.16;4994501;28;20147;-76
2022/03/21 07:27:11;;;;;;;20.55;10.80;;;;;;;5.18;50.47;102486.25;4995113;28;20159;-77
2022/03/21 07:29:38;;;;;;;18.58;10.57;;;;;;;5.21;49.87;102420.72;5028247;28;20033;-76
2022/03/21 07:32:04;;;;;;;23.33;12.10;;;;;;;4.88;49.20;102283.19;5010649;28;20163;-76
2022/03/21 07:34:29;;;;;;;20.73;12.18;;;;;;;4.75;48.62;102208.09;5010477;28;20041;-77
2022/03/21 07:36:55;;;;;;;22.17;11.60;;;;;;;5.07;48.02;102225.59;5028115;28;20576;-77
2022/03/21 07:39:20;;;;;;;26.17;11.93;;;;;;;5.08;47.69;102213.22;4994097;28;20463;-76
2022/03/21 07:41:46;;;;;;;20.90;11.93;;;;;;;5.00;47.74;102197.78;5010299;28;20284;-76
2022/03/21 07:47:17;;;;;;;22.38;11.55;;;;;;;4.95;47.79;102194.56;5010392;28;20029;-76
2022/03/21 07:49:43;;;;;;;21.02;11.30;;;;;;;5.14;47.44;102194.31;5009646;28;20443;-76
2022/03/21 07:52:09;;;;;;;19.75;11.75;;;;;;;5.42;47.00;102213.84;5027797;28;20017;-77
2022/03/21 07:54:34;;;;;;;22.40;12.02;;;;;;;5.57;46.73;102217.34;5010504;28;20033;-77
2022/03/21 07:57:00;;;;;;;20.33;10.83;;;;;;;5.71;46.38;102214.69;4992402;28;20037;-76
2022/03/21 07:59:25;;;;;;;20.63;12.03;;;;;;;5.41;46.16;102103.56;5022846;28;20467;-76
2022/03/21 08:01:51;;;;;;;20.23;13.20;;;;;;;5.37;46.36;102110.81;5010029;28;20467;-76
2022/03/21 08:04:17;;;;;;;20.90;12.10;;;;;;;5.73;46.19;102202.19;5010271;28;20453;-77
2022/03/21 08:06:44;;;;;;;22.90;11.65;;;;;;;5.90;45.77;102186.09;5010655;28;20040;-76
2022/03/21 08:09:09;;;;;;;22.77;12.20;;;;;;;6.13;45.91;102231.53;5009776;28;20041;-76
2022/03/21 08:11:35;;;;;;;21.73;12.87;;;;;;;6.05;45.39;102159.59;4987747;28;20041;-76
2022/03/21 08:14:00;;;;;;;22.67;12.53;;;;;;;5.96;45.29;102099.22;5027636;28;20264;-76
2022/03/21 08:16:25;;;;;;;22.53;12.07;;;;;;;6.22;45.36;102183.22;4993578;28;20030;-76
2022/03/21 08:18:51;;;;;;;17.17;11.17;;;;;;;6.56;45.04;102212.88;4992807;28;20033;-77
2022/03/21 08:21:18;;;;;;;21.98;11.80;;;;;;;6.67;44.33;102146.69;5009760;28;20026;-76
2022/03/21 08:23:45;;;;;;;19.15;11.63;;;;;;;7.23;43.87;102190.69;4992675;28;20029;-76
2022/03/21 08:26:10;;;;;;;24.33;12.77;;;;;;;7.00;43.91;102152.44;5009618;28;20037;-76
2022/03/21 08:28:36;;;;;;;23.67;12.97;;;;;;;7.27;43.41;102149.69;5009777;28;20051;-76
2022/03/21 08:31:01;;;;;;;24.45;12.45;;;;;;;6.76;43.27;102015.97;4991877;28;20036;-76
2022/03/21 08:33:27;;;;;;;21.02;12.38;;;;;;;7.23;43.09;102124.28;4993760;28;20045;-77
2022/03/21 08:35:52;;;;;;;22.30;12.00;;;;;;;7.64;43.21;102216.22;4979224;28;20041;-76
2022/03/21 08:38:17;;;;;;;22.73;12.00;;;;;;;7.88;42.99;102185.22;4993724;28;20080;-76
2022/03/21 08:40:43;;;;;;;21.87;12.07;;;;;;;6.81;42.86;101951.09;5012145;28;20037;-76
2022/03/21 08:43:08;;;;;;;22.70;12.83;;;;;;;7.46;42.93;102139.47;4995146;28;20029;-77
2022/03/21 08:45:35;;;;;;;20.67;12.37;;;;;;;7.46;42.72;102056.25;4993855;28;20030;-76
2022/03/21 08:48:00;;;;;;;;;;;;;;;7.40;42.36;102012.38;4995710;28;20471;-77
2022/03/21 08:50:26;;;;;;;;;;;;;;;7.54;41.98;101993.63;4993461;28;19940;-77
2022/03/21 08:52:52;;;;;;;20.98;13.18;;;;;;;8.50;42.00;102224.25;5007926;28;19921;-76
2022/03/21 08:55:17;;;;;;;21.83;12.70;;;;;;;8.22;41.49;102033.81;5009573;28;20041;-77
2022/03/21 08:57:42;;;;;;;20.57;11.60;;;;;;;8.01;41.49;102015.00;5028498;28;20076;-79
2022/03/21 09:00:10;;;;;;;26.90;12.93;;;;;;;8.33;41.74;102129.63;4994453;28;20362;-76
2022/03/21 09:02:36;;;;;;;19.63;13.13;;;;;;;8.82;41.30;102184.53;4993752;28;20057;-77
2022/03/21 09:05:04;;;;;;;22.27;12.32;;;;;;;8.73;40.45;102014.81;5008891;28;20028;-79
2022/03/21 09:07:30;;;;;;;21.70;12.10;;;;;;;8.72;40.37;102023.78;5009717;28;20104;-77
2022/03/21 09:09:55;;;;;;;20.55;12.23;;;;;;;8.62;40.39;101972.25;5009987;28;20518;-77
2022/03/21 09:12:21;;;;;;;19.77;13.13;;;;;;;8.81;40.29;101999.09;4993937;28;20041;-77
2022/03/21 09:14:46;;;;;;;18.48;12.00;;;;;;;8.83;39.96;101970.53;5009243;28;20033;-76
2022/03/21 09:17:13;;;;;;;25.07;13.13;;;;;;;8.96;39.39;101959.75;5009659;28;20124;-77
2022/03/21 09:19:39;;;;;;;20.63;11.75;;;;;;;8.69;40.23;101973.44;5035597;23;21171;-77
2022/03/21 09:22:04;;;;;;;22.30;12.05;;;;;;;9.32;40.08;102085.72;5016389;28;20176;-77
2022/03/21 09:24:30;;;;;;;21.27;11.87;;;;;;;9.22;39.48;101957.66;5046299;28;20040;-77
2022/03/21 09:26:55;;;;;;;19.17;11.40;;;;;;;9.10;39.50;101932.00;5046390;28;20163;-77
2022/03/21 09:29:21;;;;;;;21.70;12.27;;;;;;;8.93;39.76;101929.88;5046802;28;20529;-76
2022/03/21 09:31:48;;;;;;;22.40;13.30;;;;;;;9.50;39.87;102088.72;5013299;28;20752;-77
2022/03/21 09:34:16;;;;;;;19.60;12.05;;;;;;;8.93;39.41;101876.59;5047119;28;20035;-77
2022/03/21 09:36:42;;;;;;;21.92;13.68;;;;;;;9.12;39.55;101954.06;5012185;28;20143;-76
2022/03/21 09:39:08;;;;;;;18.83;12.48;;;;;;;9.97;39.54;102153.38;5013043;28;20013;-77
2022/03/21 09:41:34;;;;;;;20.48;12.02;;;;;;;9.70;38.66;101941.28;5017904;28;20136;-77
2022/03/21 09:44:03;;;;;;;20.63;12.93;;;;;;;9.55;38.52;101859.91;5023428;28;20032;-78
2022/03/21 09:46:33;;;;;;;21.60;12.80;;;;;;;9.35;38.36;101821.59;5029600;28;20033;-78
2022/03/21 09:48:58;;;;;;;22.60;12.57;;;;;;;9.96;38.55;102012.97;5012142;28;20032;-78
2022/03/21 09:51:26;;;;;;;21.27;12.63;;;;;;;9.49;38.66;101901.25;5047459;28;20027;-78
2022/03/21 09:53:52;;;;;;;19.50;12.50;;;;;;;8.64;38.80;101725.38;5047707;28;20033;-78
2022/03/21 09:56:18;;;;;;;21.20;12.05;;;;;;;8.96;39.44;101874.50;5012546;28;20117;-77
2022/03/21 09:58:44;;;;;;;22.20;13.10;;;;;;;9.33;38.92;101900.00;5029190;28;20065;-78
2022/03/21 10:01:11;;;;;;;;;;;;;;;9.81;38.54;101984.88;5030119;28;20402;-77
2022/03/21 10:03:40;;;;;;;20.33;11.05;;;;;;;10.21;38.77;102088.28;5029488;28;20909;-77
2022/03/21 10:06:33;;;;;;;21.10;12.98;;;;;;;9.97;38.28;101979.13;5047070;28;20027;-77
2022/03/21 10:09:11;;;;;;;22.35;12.85;;;;;;;10.04;38.24;101970.47;5028493;28;20041;-77
2022/03/21 10:11:39;;;;;;;17.75;11.70;;;;;;;10.03;37.44;101862.06;5046894;28;20147;-77
2022/03/21 10:14:24;;;;;;;24.35;13.85;;;;;;;10.79;37.45;102011.28;5013757;28;20020;-78
2022/03/21 10:16:54;;;;;;;23.58;13.50;;;;;;;9.86;37.44;101759.47;5006362;28;20583;-77
2022/03/21 10:19:20;;;;;;;22.17;13.40;;;;;;;9.76;38.17;101817.25;5040361;28;20083;-78
2022/03/21 10:22:05;;;;;;;22.25;13.68;;;;;;;10.00;38.96;101987.72;5028052;28;20025;-78
2022/03/21 10:24:45;;;;;;;22.55;13.43;;;;;;;10.59;38.02;102001.50;5022980;28;20539;-77
2022/03/21 10:27:34;;;;;;;20.60;12.82;;;;;;;11.48;36.87;102015.06;5027742;28;20041;-78
2022/03/21 10:30:13;;;;;;;17.80;10.90;;;;;;;10.42;37.58;101848.94;5013169;28;20521;-77
2022/03/21 10:32:50;;;;;;;19.10;13.07;;;;;;;10.63;36.91;101834.66;4996246;28;20053;-77
2022/03/21 10:35:17;;;;;;;20.38;11.60;;;;;;;11.01;36.79;101911.41;5021903;28;20090;-77
2022/03/21 10:37:48;;;;;;;;;;;;;;;11.03;37.05;101929.94;5028502;28;20028;-77
2022/03/21 10:40:43;;;;;;;21.13;13.32;;;;;;;11.38;36.98;101994.50;5011406;28;19935;-78
2022/03/21 10:43:14;;;;;;;21.35;12.88;;;;;;;11.08;35.95;101788.78;5011485;28;20025;-77
2022/03/21 10:45:51;;;;;;;21.98;14.20;;;;;;;11.20;35.96;101830.41;5012182;28;20099;-76
2022/03/21 10:48:25;;;;;;;18.60;12.15;;;;;;;10.78;36.19;101762.00;5045016;28;20021;-77
2022/03/21 10:50:55;;;;;;;19.88;12.18;;;;;;;11.27;36.15;101852.91;5017769;28;20055;-75
2022/03/21 10:53:37;;;;;;;20.20;13.38;;;;;;;11.03;35.56;101742.88;5017729;28;20090;-76
2022/03/21 10:56:09;;;;;;;21.77;12.48;;;;;;;11.41;35.62;101841.78;5034026;28;20067;-78
2022/03/21 10:58:37;;;;;;;20.80;12.40;;;;;;;11.90;35.53;101945.28;5034801;28;20552;-77
2022/03/21 11:01:24;;;;;;;20.42;12.18;;;;;;;12.15;35.11;101901.00;5033009;28;20036;-77
2022/03/21 11:03:52;;;;;;;20.40;12.82;;;;;;;11.29;35.05;101663.81;5034396;28;20104;-77
2022/03/21 11:06:18;;;;;;;22.55;13.55;;;;;;;11.83;35.62;101870.06;5034932;28;20047;-78
2022/03/21 11:08:47;;;;;;;21.65;12.27;;;;;;;10.81;35.79;101640.69;5017911;28;20455;-77
2022/03/21 11:11:13;;;;;;;21.65;12.20;;;;;;;11.69;35.89;101911.47;5018064;28;20044;-77
2022/03/21 11:13:38;;;;;;;25.05;13.65;;;;;;;11.51;35.81;101832.94;5035805;28;20508;-78
2022/03/21 11:16:04;;;;;;;19.27;13.40;;;;;;;11.19;35.83;101735.16;5020174;28;20116;-77
2022/03/21 11:18:30;;;;;;;22.40;14.23;;;;;;;11.62;35.36;101789.97;5018059;28;20060;-76
2022/03/21 11:20:56;;;;;;;20.30;13.55;;;;;;;12.00;35.51;101932.75;5017582;28;20068;-77
2022/03/21 11:23:22;;;;;;;18.70;12.27;;;;;;;11.95;35.04;101836.00;5033367;28;20045;-77
2022/03/21 11:25:55;;;;;;;23.00;13.73;;;;;;;12.09;34.78;101807.91;5050167;28;20045;-77
2022/03/21 11:29:00;;;;;;;22.98;12.75;;;;;;;13.13;34.80;102014.03;5027675;28;20082;-77
2022/03/21 11:32:03;;;;;;;18.75;13.30;;;;;;;12.24;34.03;101702.88;4958276;28;20083;-76
2022/03/21 11:34:37;;;;;;;27.55;12.82;;;;;;;12.35;35.08;101865.16;5040880;28;20044;-77
2022/03/21 11:37:03;;;;;;;21.50;13.07;;;;;;;13.16;34.33;101986.91;5030804;28;20079;-78
2022/03/21 11:39:30;;;;;;;23.33;13.90;;;;;;;12.35;34.45;101757.19;5015220;28;20049;-77
2022/03/21 11:42:11;;;;;;;20.48;13.30;;;;;;;12.24;34.47;101745.72;5018906;28;20405;-77